sensor_id;sensor_type;location;lat;lon;timestamp;pressure;altitude;pressure_sealevel;temperature;humidity
72055;BME280;59936;51.490;5.436;2022-08-14T00:00:10;100881.50;;;18.50;74.67
72055;BME280;59936;51.490;5.436;2022-08-14T00:00:21;100874.56;;;18.49;74.74
72055;BME280;59936;51.490;5.436;2022-08-14T00:00:27;100866.63;;;18.49;74.37
72055;BME280;59936;51.490;5.436;2022-08-14T00:00:32;100873.59;;;18.50;74.58
72055;BME280;59936;51.490;5.436;2022-08-14T00:00:38;100878.88;;;18.50;74.66
72055;BME280;59936;51.490;5.436;2022-08-14T00:00:43;100881.50;;;18.50;74.74
72055;BME280;59936;51.490;5.436;2022-08-14T00:00:50;100873.59;;;18.50;74.83
72055;BME280;59936;51.490;5.436;2022-08-14T00:00:57;100876.22;;;18.50;74.63
72055;BME280;59936;51.490;5.436;2022-08-14T00:01:02;100878.88;;;18.50;74.40
72055;BME280;59936;51.490;5.436;2022-08-14T00:01:08;100875.38;;;18.50;74.64
72055;BME280;59936;51.490;5.436;2022-08-14T00:01:14;100876.22;;;18.50;74.60
72055;BME280;59936;51.490;5.436;2022-08-14T00:01:19;100876.22;;;18.50;74.50
72055;BME280;59936;51.490;5.436;2022-08-14T00:01:25;100874.56;;;18.49;74.33
72055;BME280;59936;51.490;5.436;2022-08-14T00:01:30;100881.50;;;18.50;74.55
72055;BME280;59936;51.490;5.436;2022-08-14T00:01:35;100869.28;;;18.49;74.35
72055;BME280;59936;51.490;5.436;2022-08-14T00:01:40;100878.88;;;18.50;74.31
72055;BME280;59936;51.490;5.436;2022-08-14T00:01:46;100874.56;;;18.49;74.36
72055;BME280;59936;51.490;5.436;2022-08-14T00:01:51;100879.84;;;18.49;74.32
72055;BME280;59936;51.490;5.436;2022-08-14T00:02:01;100879.84;;;18.49;74.58
72055;BME280;59936;51.490;5.436;2022-08-14T00:02:08;100870.22;;;18.48;74.58
72055;BME280;59936;51.490;5.436;2022-08-14T00:02:14;100878.13;;;18.48;74.59
72055;BME280;59936;51.490;5.436;2022-08-14T00:02:19;100878.13;;;18.48;74.92
72055;BME280;59936;51.490;5.436;2022-08-14T00:02:25;100876.34;;;18.49;74.97
72055;BME280;59936;51.490;5.436;2022-08-14T00:02:31;100879.84;;;18.49;74.93
72055;BME280;59936;51.490;5.436;2022-08-14T00:02:36;100874.66;;;18.48;74.95
72055;BME280;59936;51.490;5.436;2022-08-14T00:02:43;100878.13;;;18.48;74.78
72055;BME280;59936;51.490;5.436;2022-08-14T00:02:50;100873.69;;;18.49;74.96
72055;BME280;59936;51.490;5.436;2022-08-14T00:02:56;100870.22;;;18.48;74.94
72055;BME280;59936;51.490;5.436;2022-08-14T00:03:01;100876.47;;;18.47;74.94
72055;BME280;59936;51.490;5.436;2022-08-14T00:03:06;100872.84;;;18.48;74.81
72055;BME280;59936;51.490;5.436;2022-08-14T00:03:28;100873.81;;;18.47;74.97
72055;BME280;59936;51.490;5.436;2022-08-14T00:03:35;100870.34;;;18.47;75.08
72055;BME280;59936;51.490;5.436;2022-08-14T00:03:41;100874.78;;;18.46;75.18
72055;BME280;59936;51.490;5.436;2022-08-14T00:03:46;100873.94;;;18.46;75.13
72055;BME280;59936;51.490;5.436;2022-08-14T00:03:52;100877.41;;;18.46;75.06
72055;BME280;59936;51.490;5.436;2022-08-14T00:03:57;100871.41;;;18.44;75.32
72055;BME280;59936;51.490;5.436;2022-08-14T00:04:02;100877.53;;;18.45;75.30
72055;BME280;59936;51.490;5.436;2022-08-14T00:04:08;100869.72;;;18.43;75.27
72055;BME280;59936;51.490;5.436;2022-08-14T00:04:14;100872.38;;;18.43;75.37
72055;BME280;59936;51.490;5.436;2022-08-14T00:04:19;100876.94;;;18.41;75.25
72055;BME280;59936;51.490;5.436;2022-08-14T00:04:25;100866.38;;;18.41;75.51
72055;BME280;59936;51.490;5.436;2022-08-14T00:04:31;100876.78;;;18.43;75.48
72055;BME280;59936;51.490;5.436;2022-08-14T00:04:38;100871.66;;;18.41;75.57
72055;BME280;59936;51.490;5.436;2022-08-14T00:04:43;100876.09;;;18.40;75.39
72055;BME280;59936;51.490;5.436;2022-08-14T00:04:48;100869.94;;;18.40;75.59
72055;BME280;59936;51.490;5.436;2022-08-14T00:04:54;100869.94;;;18.40;75.55
72055;BME280;59936;51.490;5.436;2022-08-14T00:05:00;100882.34;;;18.39;75.20
72055;BME280;59936;51.490;5.436;2022-08-14T00:05:11;100884.97;;;18.39;75.39
72055;BME280;59936;51.490;5.436;2022-08-14T00:05:19;100876.19;;;18.39;75.47
72055;BME280;59936;51.490;5.436;2022-08-14T00:05:25;100876.19;;;18.39;75.61
72055;BME280;59936;51.490;5.436;2022-08-14T00:05:31;100876.19;;;18.39;75.36
72055;BME280;59936;51.490;5.436;2022-08-14T00:05:36;100872.69;;;18.38;75.47
72055;BME280;59936;51.490;5.436;2022-08-14T00:05:41;100880.63;;;18.38;75.52
72055;BME280;59936;51.490;5.436;2022-08-14T00:05:48;100868.28;;;18.39;75.37
72055;BME280;59936;51.490;5.436;2022-08-14T00:05:56;100868.28;;;18.39;75.43
72055;BME280;59936;51.490;5.436;2022-08-14T00:06:03;100880.78;;;18.37;75.41
72055;BME280;59936;51.490;5.436;2022-08-14T00:06:09;100872.00;;;18.36;75.43
72055;BME280;59936;51.490;5.436;2022-08-14T00:06:14;100873.78;;;18.36;75.60
72055;BME280;59936;51.490;5.436;2022-08-14T00:06:20;100873.78;;;18.36;75.72
72055;BME280;59936;51.490;5.436;2022-08-14T00:06:26;100876.53;;;18.34;75.67
72055;BME280;59936;51.490;5.436;2022-08-14T00:06:31;100874.75;;;18.35;75.52
72055;BME280;59936;51.490;5.436;2022-08-14T00:06:37;100880.03;;;18.35;75.55
72055;BME280;59936;51.490;5.436;2022-08-14T00:06:42;100875.72;;;18.34;75.89
72055;BME280;59936;51.490;5.436;2022-08-14T00:06:47;100874.75;;;18.35;76.01
72055;BME280;59936;51.490;5.436;2022-08-14T00:06:53;100875.72;;;18.34;75.80
72055;BME280;59936;51.490;5.436;2022-08-14T00:06:58;100870.44;;;18.34;75.76
72055;BME280;59936;51.490;5.436;2022-08-14T00:07:04;100877.38;;;18.35;75.75
72055;BME280;59936;51.490;5.436;2022-08-14T00:07:11;100870.44;;;18.34;75.78
72055;BME280;59936;51.490;5.436;2022-08-14T00:07:16;100869.47;;;18.35;75.72
72055;BME280;59936;51.490;5.436;2022-08-14T00:07:22;100881.72;;;18.36;75.67
72055;BME280;59936;51.490;5.436;2022-08-14T00:07:28;100879.06;;;18.36;75.61
72055;BME280;59936;51.490;5.436;2022-08-14T00:07:33;100875.59;;;18.35;75.74
72055;BME280;59936;51.490;5.436;2022-08-14T00:07:39;100882.66;;;18.35;76.03
72055;BME280;59936;51.490;5.436;2022-08-14T00:07:45;100875.72;;;18.34;75.55
72055;BME280;59936;51.490;5.436;2022-08-14T00:07:52;100871.25;;;18.34;75.58
72055;BME280;59936;51.490;5.436;2022-08-14T00:07:57;100875.72;;;18.34;75.79
72055;BME280;59936;51.490;5.436;2022-08-14T00:08:03;100871.38;;;18.33;75.90
72055;BME280;59936;51.490;5.436;2022-08-14T00:08:08;100870.53;;;18.32;76.08
72055;BME280;59936;51.490;5.436;2022-08-14T00:08:13;100874.00;;;18.33;76.17
72055;BME280;59936;51.490;5.436;2022-08-14T00:08:19;100875.72;;;18.34;76.03
72055;BME280;59936;51.490;5.436;2022-08-14T00:08:25;100879.28;;;18.33;76.03
72055;BME280;59936;51.490;5.436;2022-08-14T00:08:31;100866.94;;;18.33;76.16
72055;BME280;59936;51.490;5.436;2022-08-14T00:08:36;100875.72;;;18.34;76.44
72055;BME280;59936;51.490;5.436;2022-08-14T00:08:42;100875.72;;;18.34;76.49
72055;BME280;59936;51.490;5.436;2022-08-14T00:08:47;100873.06;;;18.34;76.66
72055;BME280;59936;51.490;5.436;2022-08-14T00:08:53;100877.38;;;18.35;76.18
72055;BME280;59936;51.490;5.436;2022-08-14T00:08:59;100870.44;;;18.34;76.38
72055;BME280;59936;51.490;5.436;2022-08-14T00:09:04;100876.53;;;18.34;76.30
72055;BME280;59936;51.490;5.436;2022-08-14T00:09:10;100879.06;;;18.36;76.51
72055;BME280;59936;51.490;5.436;2022-08-14T00:09:15;100873.06;;;18.34;76.51
72055;BME280;59936;51.490;5.436;2022-08-14T00:09:21;100870.31;;;18.35;76.57
72055;BME280;59936;51.490;5.436;2022-08-14T00:09:27;100878.25;;;18.35;76.42
72055;BME280;59936;51.490;5.436;2022-08-14T00:09:33;100878.25;;;18.35;76.38
72055;BME280;59936;51.490;5.436;2022-08-14T00:09:39;100873.78;;;18.36;76.41
72055;BME280;59936;51.490;5.436;2022-08-14T00:09:45;100873.78;;;18.36;76.34
72055;BME280;59936;51.490;5.436;2022-08-14T00:09:50;100878.25;;;18.35;76.39
72055;BME280;59936;51.490;5.436;2022-08-14T00:09:57;100870.31;;;18.35;76.60
72055;BME280;59936;51.490;5.436;2022-08-14T00:10:04;100872.09;;;18.35;76.57
72055;BME280;59936;51.490;5.436;2022-08-14T00:10:16;100874.75;;;18.35;76.62
72055;BME280;59936;51.490;5.436;2022-08-14T00:10:23;100877.38;;;18.35;76.58
72055;BME280;59936;51.490;5.436;2022-08-14T00:10:29;100872.97;;;18.35;76.84
72055;BME280;59936;51.490;5.436;2022-08-14T00:10:34;100866.81;;;18.35;76.54
72055;BME280;59936;51.490;5.436;2022-08-14T00:10:40;100872.09;;;18.35;76.66
72055;BME280;59936;51.490;5.436;2022-08-14T00:10:46;100873.78;;;18.36;76.58
72055;BME280;59936;51.490;5.436;2022-08-14T00:10:51;100873.78;;;18.36;76.63
72055;BME280;59936;51.490;5.436;2022-08-14T00:10:57;100876.41;;;18.36;76.72
72055;BME280;59936;51.490;5.436;2022-08-14T00:11:03;100872.09;;;18.35;76.50
72055;BME280;59936;51.490;5.436;2022-08-14T00:11:08;100872.09;;;18.35;76.80
72055;BME280;59936;51.490;5.436;2022-08-14T00:11:14;100872.09;;;18.35;76.29
72055;BME280;59936;51.490;5.436;2022-08-14T00:11:19;100864.19;;;18.35;76.51
72055;BME280;59936;51.490;5.436;2022-08-14T00:11:25;100867.78;;;18.34;76.66
72055;BME280;59936;51.490;5.436;2022-08-14T00:11:32;100868.59;;;18.34;76.50
72055;BME280;59936;51.490;5.436;2022-08-14T00:11:37;100872.09;;;18.35;76.64
72055;BME280;59936;51.490;5.436;2022-08-14T00:11:43;100862.50;;;18.34;76.71
72055;BME280;59936;51.490;5.436;2022-08-14T00:11:48;100862.50;;;18.34;76.61
72055;BME280;59936;51.490;5.436;2022-08-14T00:11:54;100865.97;;;18.34;76.31
72055;BME280;59936;51.490;5.436;2022-08-14T00:12:00;100867.78;;;18.34;76.54
72055;BME280;59936;51.490;5.436;2022-08-14T00:12:06;100867.78;;;18.34;76.60
72055;BME280;59936;51.490;5.436;2022-08-14T00:12:11;100867.78;;;18.34;76.53
72055;BME280;59936;51.490;5.436;2022-08-14T00:12:17;100870.44;;;18.34;76.46
72055;BME280;59936;51.490;5.436;2022-08-14T00:12:23;100865.16;;;18.34;76.35
72055;BME280;59936;51.490;5.436;2022-08-14T00:12:31;100873.19;;;18.32;76.39
72055;BME280;59936;51.490;5.436;2022-08-14T00:12:42;100867.91;;;18.32;76.38
72055;BME280;59936;51.490;5.436;2022-08-14T00:12:53;100864.41;;;18.32;76.71
72055;BME280;59936;51.490;5.436;2022-08-14T00:12:59;100859.13;;;18.32;76.59
72055;BME280;59936;51.490;5.436;2022-08-14T00:13:05;100859.13;;;18.32;76.67
72055;BME280;59936;51.490;5.436;2022-08-14T00:13:11;100860.09;;;18.31;76.81
72055;BME280;59936;51.490;5.436;2022-08-14T00:13:19;100866.22;;;18.31;76.55
72055;BME280;59936;51.490;5.436;2022-08-14T00:13:26;100866.22;;;18.31;76.60
72055;BME280;59936;51.490;5.436;2022-08-14T00:13:33;100868.88;;;18.31;76.61
72055;BME280;59936;51.490;5.436;2022-08-14T00:13:39;100867.03;;;18.32;76.81
72055;BME280;59936;51.490;5.436;2022-08-14T00:13:45;100860.94;;;18.31;76.68
72055;BME280;59936;51.490;5.436;2022-08-14T00:13:52;100865.38;;;18.31;76.66
72055;BME280;59936;51.490;5.436;2022-08-14T00:14:00;100863.59;;;18.31;76.53
72055;BME280;59936;51.490;5.436;2022-08-14T00:14:06;100866.22;;;18.31;76.73
72055;BME280;59936;51.490;5.436;2022-08-14T00:14:11;100858.31;;;18.31;76.95
72055;BME280;59936;51.490;5.436;2022-08-14T00:14:17;100869.81;;;18.30;76.74
72055;BME280;59936;51.490;5.436;2022-08-14T00:14:25;100852.16;;;18.31;76.85
72055;BME280;59936;51.490;5.436;2022-08-14T00:14:31;100865.38;;;18.31;77.03
72055;BME280;59936;51.490;5.436;2022-08-14T00:14:36;100866.34;;;18.30;76.89
72055;BME280;59936;51.490;5.436;2022-08-14T00:14:44;100866.34;;;18.30;76.79
72055;BME280;59936;51.490;5.436;2022-08-14T00:14:49;100858.41;;;18.30;77.19
72055;BME280;59936;51.490;5.436;2022-08-14T00:14:56;100864.63;;;18.28;77.41
72055;BME280;59936;51.490;5.436;2022-08-14T00:15:14;100868.13;;;18.29;77.43
72055;BME280;59936;51.490;5.436;2022-08-14T00:15:34;100862.00;;;18.28;77.48
72055;BME280;59936;51.490;5.436;2022-08-14T00:15:45;100867.28;;;18.28;77.63
72055;BME280;59936;51.490;5.436;2022-08-14T00:15:55;100855.88;;;18.28;77.63
72055;BME280;59936;51.490;5.436;2022-08-14T00:16:02;100859.50;;;18.27;78.01
72055;BME280;59936;51.490;5.436;2022-08-14T00:16:08;100864.78;;;18.27;78.07
72055;BME280;59936;51.490;5.436;2022-08-14T00:16:19;100865.59;;;18.27;78.09
72055;BME280;59936;51.490;5.436;2022-08-14T00:16:25;100864.78;;;18.27;78.18
72055;BME280;59936;51.490;5.436;2022-08-14T00:16:30;100857.66;;;18.27;77.93
72055;BME280;59936;51.490;5.436;2022-08-14T00:16:36;100863.91;;;18.26;78.24
72055;BME280;59936;51.490;5.436;2022-08-14T00:16:42;100861.28;;;18.26;78.31
72055;BME280;59936;51.490;5.436;2022-08-14T00:16:47;100861.28;;;18.26;78.08
72055;BME280;59936;51.490;5.436;2022-08-14T00:16:54;100869.19;;;18.26;78.26
72055;BME280;59936;51.490;5.436;2022-08-14T00:17:00;100863.06;;;18.26;78.50
72055;BME280;59936;51.490;5.436;2022-08-14T00:17:05;100865.72;;;18.26;78.34
72055;BME280;59936;51.490;5.436;2022-08-14T00:17:11;100859.50;;;18.27;78.55
72055;BME280;59936;51.490;5.436;2022-08-14T00:17:16;100863.91;;;18.26;78.75
72055;BME280;59936;51.490;5.436;2022-08-14T00:17:22;100867.53;;;18.25;78.30
72055;BME280;59936;51.490;5.436;2022-08-14T00:17:28;100857.91;;;18.24;78.14
72055;BME280;59936;51.490;5.436;2022-08-14T00:17:33;100861.50;;;18.23;78.46
72055;BME280;59936;51.490;5.436;2022-08-14T00:17:39;100858.84;;;18.23;78.75
72055;BME280;59936;51.490;5.436;2022-08-14T00:17:44;100858.97;;;18.22;78.81
72055;BME280;59936;51.490;5.436;2022-08-14T00:17:52;100867.75;;;18.22;79.11
72055;BME280;59936;51.490;5.436;2022-08-14T00:17:57;100864.16;;;18.23;79.32
72055;BME280;59936;51.490;5.436;2022-08-14T00:18:04;100865.94;;;18.23;79.13
72055;BME280;59936;51.490;5.436;2022-08-14T00:18:15;100863.28;;;18.23;79.05
72055;BME280;59936;51.490;5.436;2022-08-14T00:18:25;100851.91;;;18.22;79.12
72055;BME280;59936;51.490;5.436;2022-08-14T00:18:32;100859.81;;;18.22;79.02
72055;BME280;59936;51.490;5.436;2022-08-14T00:18:37;100858.84;;;18.23;79.05
72055;BME280;59936;51.490;5.436;2022-08-14T00:18:42;100857.19;;;18.22;79.07
72055;BME280;59936;51.490;5.436;2022-08-14T00:18:48;100856.34;;;18.22;79.06
72055;BME280;59936;51.490;5.436;2022-08-14T00:18:53;100854.53;;;18.22;79.16
72055;BME280;59936;51.490;5.436;2022-08-14T00:18:59;100859.81;;;18.22;79.15
72055;BME280;59936;51.490;5.436;2022-08-14T00:19:04;100861.63;;;18.22;79.23
72055;BME280;59936;51.490;5.436;2022-08-14T00:19:10;100866.06;;;18.21;79.13
72055;BME280;59936;51.490;5.436;2022-08-14T00:19:17;100855.50;;;18.21;79.15
72055;BME280;59936;51.490;5.436;2022-08-14T00:19:22;100859.94;;;18.21;79.15
72055;BME280;59936;51.490;5.436;2022-08-14T00:19:28;100861.63;;;18.22;79.39
72055;BME280;59936;51.490;5.436;2022-08-14T00:19:33;100861.72;;;18.20;79.21
72055;BME280;59936;51.490;5.436;2022-08-14T00:19:39;100859.09;;;18.20;79.42
72055;BME280;59936;51.490;5.436;2022-08-14T00:19:44;100860.78;;;18.21;79.28
72055;BME280;59936;51.490;5.436;2022-08-14T00:19:49;100859.09;;;18.20;79.27
72055;BME280;59936;51.490;5.436;2022-08-14T00:19:55;100859.09;;;18.20;79.28
72055;BME280;59936;51.490;5.436;2022-08-14T00:20:00;100864.38;;;18.20;79.42
72055;BME280;59936;51.490;5.436;2022-08-14T00:20:06;100863.53;;;18.20;79.66
72055;BME280;59936;51.490;5.436;2022-08-14T00:20:13;100857.41;;;18.19;79.46
72055;BME280;59936;51.490;5.436;2022-08-14T00:20:25;100859.09;;;18.20;79.82
72055;BME280;59936;51.490;5.436;2022-08-14T00:20:39;100857.41;;;18.19;79.53
72055;BME280;59936;51.490;5.436;2022-08-14T00:20:46;100857.41;;;18.19;79.54
72055;BME280;59936;51.490;5.436;2022-08-14T00:20:53;100862.69;;;18.19;79.70
72055;BME280;59936;51.490;5.436;2022-08-14T00:20:59;100859.09;;;18.20;79.66
72055;BME280;59936;51.490;5.436;2022-08-14T00:21:05;100855.72;;;18.18;79.70
72055;BME280;59936;51.490;5.436;2022-08-14T00:21:11;100855.72;;;18.18;80.03
72055;BME280;59936;51.490;5.436;2022-08-14T00:21:16;100859.34;;;18.17;79.95
72055;BME280;59936;51.490;5.436;2022-08-14T00:21:22;100858.38;;;18.18;79.83
72055;BME280;59936;51.490;5.436;2022-08-14T00:21:27;100857.41;;;18.19;80.18
72055;BME280;59936;51.490;5.436;2022-08-14T00:21:32;100860.16;;;18.18;79.91
72055;BME280;59936;51.490;5.436;2022-08-14T00:21:38;100860.16;;;18.18;80.17
72055;BME280;59936;51.490;5.436;2022-08-14T00:21:43;100855.72;;;18.18;80.20
72055;BME280;59936;51.490;5.436;2022-08-14T00:21:50;100859.34;;;18.17;80.31
72055;BME280;59936;51.490;5.436;2022-08-14T00:21:56;100855.00;;;18.16;80.19
72055;BME280;59936;51.490;5.436;2022-08-14T00:22:02;100859.34;;;18.17;80.01
72055;BME280;59936;51.490;5.436;2022-08-14T00:22:07;100861.97;;;18.17;80.07
72055;BME280;59936;51.490;5.436;2022-08-14T00:22:13;100859.34;;;18.17;80.19
72055;BME280;59936;51.490;5.436;2022-08-14T00:22:22;100858.47;;;18.17;80.37
72055;BME280;59936;51.490;5.436;2022-08-14T00:22:27;100859.34;;;18.17;80.37
72055;BME280;59936;51.490;5.436;2022-08-14T00:22:33;100860.28;;;18.16;80.47
72055;BME280;59936;51.490;5.436;2022-08-14T00:22:39;100860.28;;;18.16;80.49
72055;BME280;59936;51.490;5.436;2022-08-14T00:22:44;100862.91;;;18.16;80.65
72055;BME280;59936;51.490;5.436;2022-08-14T00:22:50;100857.63;;;18.16;80.57
72055;BME280;59936;51.490;5.436;2022-08-14T00:22:57;100856.81;;;18.16;80.62
72055;BME280;59936;51.490;5.436;2022-08-14T00:23:05;100851.53;;;18.16;80.30
72055;BME280;59936;51.490;5.436;2022-08-14T00:23:13;100853.31;;;18.15;80.72
72055;BME280;59936;51.490;5.436;2022-08-14T00:23:20;100856.06;;;18.13;80.40
72055;BME280;59936;51.490;5.436;2022-08-14T00:23:25;100852.56;;;18.13;80.74
72055;BME280;59936;51.490;5.436;2022-08-14T00:23:31;100850.91;;;18.12;80.54
72055;BME280;59936;51.490;5.436;2022-08-14T00:23:37;100857.84;;;18.13;80.70
72055;BME280;59936;51.490;5.436;2022-08-14T00:23:43;100856.19;;;18.12;80.80
72055;BME280;59936;51.490;5.436;2022-08-14T00:23:48;100857.03;;;18.12;80.84
72055;BME280;59936;51.490;5.436;2022-08-14T00:23:55;100868.41;;;18.13;80.88
72055;BME280;59936;51.490;5.436;2022-08-14T00:24:01;100852.56;;;18.13;80.71
72055;BME280;59936;51.490;5.436;2022-08-14T00:24:08;100857.84;;;18.13;80.88
72055;BME280;59936;51.490;5.436;2022-08-14T00:24:13;100857.84;;;18.13;80.58
72055;BME280;59936;51.490;5.436;2022-08-14T00:24:20;100856.19;;;18.12;80.66
72055;BME280;59936;51.490;5.436;2022-08-14T00:24:26;100854.38;;;18.12;80.89
72055;BME280;59936;51.490;5.436;2022-08-14T00:24:31;100856.19;;;18.12;80.92
72055;BME280;59936;51.490;5.436;2022-08-14T00:24:36;100856.19;;;18.12;80.92
72055;BME280;59936;51.490;5.436;2022-08-14T00:24:42;100860.63;;;18.11;80.74
72055;BME280;59936;51.490;5.436;2022-08-14T00:24:47;100851.84;;;18.11;80.59
72055;BME280;59936;51.490;5.436;2022-08-14T00:24:52;100854.50;;;18.11;80.77
72055;BME280;59936;51.490;5.436;2022-08-14T00:24:58;100855.34;;;18.11;81.03
72055;BME280;59936;51.490;5.436;2022-08-14T00:25:07;100856.19;;;18.12;80.86
72055;BME280;59936;51.490;5.436;2022-08-14T00:25:13;100859.78;;;18.11;80.87
72055;BME280;59936;51.490;5.436;2022-08-14T00:25:18;100854.50;;;18.11;80.97
72055;BME280;59936;51.490;5.436;2022-08-14T00:25:25;100851.84;;;18.11;80.96
72055;BME280;59936;51.490;5.436;2022-08-14T00:25:31;100847.53;;;18.10;80.91
72055;BME280;59936;51.490;5.436;2022-08-14T00:25:37;100852.81;;;18.10;80.89
72055;BME280;59936;51.490;5.436;2022-08-14T00:25:46;100852.81;;;18.10;81.12
72055;BME280;59936;51.490;5.436;2022-08-14T00:25:54;100856.41;;;18.09;80.91
72055;BME280;59936;51.490;5.436;2022-08-14T00:26:00;100850.25;;;18.08;81.24
72055;BME280;59936;51.490;5.436;2022-08-14T00:26:05;100852.91;;;18.08;81.35
72055;BME280;59936;51.490;5.436;2022-08-14T00:26:11;100858.28;;;18.07;81.41
72055;BME280;59936;51.490;5.436;2022-08-14T00:26:16;100855.66;;;18.07;81.31
72055;BME280;59936;51.490;5.436;2022-08-14T00:26:22;100853.00;;;18.07;81.30
72055;BME280;59936;51.490;5.436;2022-08-14T00:26:28;100856.41;;;18.09;81.48
72055;BME280;59936;51.490;5.436;2022-08-14T00:26:33;100848.56;;;18.07;81.60
72055;BME280;59936;51.490;5.436;2022-08-14T00:26:38;100853.84;;;18.07;81.28
72055;BME280;59936;51.490;5.436;2022-08-14T00:26:44;100852.16;;;18.06;81.21
72055;BME280;59936;51.490;5.436;2022-08-14T00:26:49;100851.34;;;18.06;81.46
72055;BME280;59936;51.490;5.436;2022-08-14T00:26:56;100852.16;;;18.06;81.35
72055;BME280;59936;51.490;5.436;2022-08-14T00:27:02;100855.75;;;18.05;81.60
72055;BME280;59936;51.490;5.436;2022-08-14T00:27:08;100849.63;;;18.05;81.37
72055;BME280;59936;51.490;5.436;2022-08-14T00:27:13;100854.09;;;18.04;81.59
72055;BME280;59936;51.490;5.436;2022-08-14T00:27:19;100854.09;;;18.04;81.83
72055;BME280;59936;51.490;5.436;2022-08-14T00:27:24;100847.00;;;18.05;81.52
72055;BME280;59936;51.490;5.436;2022-08-14T00:27:30;100857.56;;;18.05;81.57
72055;BME280;59936;51.490;5.436;2022-08-14T00:27:35;100850.47;;;18.05;81.48
72055;BME280;59936;51.490;5.436;2022-08-14T00:27:41;100854.91;;;18.05;81.75
72055;BME280;59936;51.490;5.436;2022-08-14T00:27:47;100849.75;;;18.03;81.84
72055;BME280;59936;51.490;5.436;2022-08-14T00:27:53;100855.88;;;18.04;81.52
72055;BME280;59936;51.490;5.436;2022-08-14T00:27:59;100847.94;;;18.04;81.89
72055;BME280;59936;51.490;5.436;2022-08-14T00:28:07;100851.56;;;18.02;81.50
72055;BME280;59936;51.490;5.436;2022-08-14T00:28:14;100847.94;;;18.04;81.59
72055;BME280;59936;51.490;5.436;2022-08-14T00:28:20;100853.22;;;18.04;81.80
72055;BME280;59936;51.490;5.436;2022-08-14T00:28:30;100847.00;;;18.05;81.85
72055;BME280;59936;51.490;5.436;2022-08-14T00:28:36;100854.09;;;18.04;81.62
72055;BME280;59936;51.490;5.436;2022-08-14T00:28:41;100852.28;;;18.05;81.69
72055;BME280;59936;51.490;5.436;2022-08-14T00:28:46;100852.38;;;18.03;81.93
72055;BME280;59936;51.490;5.436;2022-08-14T00:28:52;100847.09;;;18.03;81.87
72055;BME280;59936;51.490;5.436;2022-08-14T00:28:58;100849.75;;;18.03;82.00
72055;BME280;59936;51.490;5.436;2022-08-14T00:29:03;100851.56;;;18.02;81.84
72055;BME280;59936;51.490;5.436;2022-08-14T00:29:08;100851.56;;;18.02;81.95
72055;BME280;59936;51.490;5.436;2022-08-14T00:29:14;100856.84;;;18.02;82.20
72055;BME280;59936;51.490;5.436;2022-08-14T00:29:20;100851.56;;;18.02;82.24
72055;BME280;59936;51.490;5.436;2022-08-14T00:29:25;100849.88;;;18.01;82.00
72055;BME280;59936;51.490;5.436;2022-08-14T00:29:31;100851.56;;;18.02;82.24
72055;BME280;59936;51.490;5.436;2022-08-14T00:29:37;100855.16;;;18.01;81.87
72055;BME280;59936;51.490;5.436;2022-08-14T00:29:42;100853.47;;;18.00;82.25
72055;BME280;59936;51.490;5.436;2022-08-14T00:29:47;100855.16;;;18.01;82.20
72055;BME280;59936;51.490;5.436;2022-08-14T00:29:53;100855.16;;;18.01;82.09
72055;BME280;59936;51.490;5.436;2022-08-14T00:29:58;100849.88;;;18.01;82.19
72055;BME280;59936;51.490;5.436;2022-08-14T00:30:09;100850.81;;;18.00;82.24
72055;BME280;59936;51.490;5.436;2022-08-14T00:30:16;100853.47;;;18.00;82.23
72055;BME280;59936;51.490;5.436;2022-08-14T00:30:22;100846.50;;;17.99;82.40
72055;BME280;59936;51.490;5.436;2022-08-14T00:30:27;100853.56;;;17.99;82.35
72055;BME280;59936;51.490;5.436;2022-08-14T00:30:33;100850.94;;;17.99;82.54
72055;BME280;59936;51.490;5.436;2022-08-14T00:30:39;100850.09;;;17.98;82.48
72055;BME280;59936;51.490;5.436;2022-08-14T00:30:46;100855.38;;;17.98;82.42
72055;BME280;59936;51.490;5.436;2022-08-14T00:30:55;100853.69;;;17.97;82.66
72055;BME280;59936;51.490;5.436;2022-08-14T00:31:04;100844.81;;;17.98;82.78
72055;BME280;59936;51.490;5.436;2022-08-14T00:31:10;100848.41;;;17.97;82.83
72055;BME280;59936;51.490;5.436;2022-08-14T00:31:16;100846.59;;;17.98;83.01
72055;BME280;59936;51.490;5.436;2022-08-14T00:31:22;100843.13;;;17.97;82.94
72055;BME280;59936;51.490;5.436;2022-08-14T00:31:27;100844.81;;;17.98;82.88
72055;BME280;59936;51.490;5.436;2022-08-14T00:31:34;100850.09;;;17.98;82.82
72055;BME280;59936;51.490;5.436;2022-08-14T00:31:39;100849.25;;;17.98;83.28
72055;BME280;59936;51.490;5.436;2022-08-14T00:31:45;100850.09;;;17.98;83.22
72055;BME280;59936;51.490;5.436;2022-08-14T00:31:51;100850.09;;;17.98;83.03
72055;BME280;59936;51.490;5.436;2022-08-14T00:31:57;100846.59;;;17.98;82.81
72055;BME280;59936;51.490;5.436;2022-08-14T00:32:02;100847.56;;;17.97;83.38
72055;BME280;59936;51.490;5.436;2022-08-14T00:32:08;100852.00;;;17.96;83.31
72055;BME280;59936;51.490;5.436;2022-08-14T00:32:14;100847.56;;;17.97;83.38
72055;BME280;59936;51.490;5.436;2022-08-14T00:32:19;100852.00;;;17.96;83.27
72055;BME280;59936;51.490;5.436;2022-08-14T00:32:25;100845.03;;;17.95;83.59
72055;BME280;59936;51.490;5.436;2022-08-14T00:32:30;100842.50;;;17.94;83.62
72055;BME280;59936;51.490;5.436;2022-08-14T00:32:35;100848.66;;;17.94;83.41
72055;BME280;59936;51.490;5.436;2022-08-14T00:32:42;100848.66;;;17.94;83.63
72055;BME280;59936;51.490;5.436;2022-08-14T00:32:48;100846.94;;;17.93;83.50
72055;BME280;59936;51.490;5.436;2022-08-14T00:32:54;100843.38;;;17.94;83.55
72055;BME280;59936;51.490;5.436;2022-08-14T00:32:59;100845.03;;;17.95;83.50
72055;BME280;59936;51.490;5.436;2022-08-14T00:33:05;100843.38;;;17.94;83.62